CheckWX is a tool to help pilots better visualize weather data.  It is not intended as a substitute for an official pre-flight weather briefing.

14:26:59 UTC

KPSX METAR
Palacios Municipal Airport
Palacios, Texas, USA
Current

34 mins ago

KPSX 221353Z AUTO 13013KT 10SM SCT028 23/20 A3004 RMK AO2 SLP171 T02280200
Observed
Apr-22 @ 13:53 UTC
Wind
  • 130° at 13 KTS
Visibility
10 SM
Flight Rules
VFR
Cloud Levels
  • Scattered at 2,800' AGL
Temperature
23°C / 73°F
Dewpoint
20°C / 68°F
Humidity
83%
Altimeter
30.04" Hg
Pressure
1017.32 hPa
Previous

1 hour ago

KPSX 221323Z AUTO 13011KT 10SM BKN028 22/21 A3003 RMK AO2 T02220206
Observed
Apr-22 @ 13:23 UTC
Wind
  • 130° at 11 KTS
Visibility
10 SM
Flight Rules
MVFR
Cloud Levels
  • Broken at 2,800' AGL
Temperature
22°C / 72°F
Dewpoint
21°C / 70°F
Humidity
94%
Altimeter
30.03" Hg
Pressure
1016.92 hPa
Previous

2 hours ago

KPSX 221253Z AUTO 13009KT 10SM FEW025 22/21 A3002 RMK AO2 SLP167 T02170206
Observed
Apr-22 @ 12:53 UTC
Wind
  • 130° at 9 KTS
Visibility
10 SM
Flight Rules
VFR
Cloud Levels
  • Few at 2,500' AGL
Temperature
22°C / 72°F
Dewpoint
21°C / 70°F
Humidity
94%
Altimeter
30.02" Hg
Pressure
1016.62 hPa